RJTO(METAR)
05/26 17:00
METAR RJTO 260800Z 20010KT 9999 FEW015 SCT110 BKN/// 24/20 Q1006 RMK
1CU015 3AC110 A2973=
戻る
トップページへ戻る
IMOC Co,.Ltd.